Terminal Aerodrome Forecast
Issued by NWS

Current Version | Previous Version | Text Only | Print | Product List | Glossary On
Versions: 1 2 3 4 5 6 7 8 9 10 11 12 13 14 15
000
FTAK31 PAJN 280100 AAB
TAFAYA
TAF AMD
PAYA 280137Z 2802/2824 07003KT 3SM BR SKC
      TEMPO 2802/2804 3/4SM BR VV001
     FM280600 04003KT P6SM SKC
     FM281300 08007KT P6SM SKC
      AMD LTD TO CLD VIS AND WIND 2801/2810=

USA.gov is the U.S. government's official web portal to all federal, state and local government web resources and services.